Time;durP1;ratioP1;P1;durP2;ratioP2;P2;SDS_P1;SDS_P2;PMS_P1;PMS_P2;Temp;Humidity;BMP_temperature;BMP_pressure;BME280_temperature;BME280_humidity;BME280_pressure;Samples;Min_cycle;Max_cycle;Signal;HPM_P1;HPM_P2
2022/11/12 00:02:03;;;;;;;11.57;6.65;;;6.40;99.90;;;;;;7407396;19;20325;-88
2022/11/12 00:04:32;;;;;;;14.57;6.68;;;6.40;99.90;;;;;;7406042;19;19927;-88
2022/11/12 00:07:01;;;;;;;12.93;5.60;;;6.40;99.90;;;;;;7406930;19;20205;-88
2022/11/12 00:09:30;;;;;;;15.32;7.68;;;6.40;99.90;;;;;;7407416;19;19918;-87
2022/11/12 00:11:59;;;;;;;12.63;6.20;;;6.40;99.90;;;;;;7406794;19;19921;-88
2022/11/12 00:14:30;;;;;;;15.82;6.35;;;6.50;99.90;;;;;;7407232;19;20341;-88
2022/11/12 00:16:59;;;;;;;10.02;6.65;;;6.50;99.90;;;;;;7407216;19;19914;-88
2022/11/12 00:19:28;;;;;;;12.90;7.40;;;6.50;99.90;;;;;;7406958;19;19984;-88
2022/11/12 00:21:57;;;;;;;13.65;6.32;;;6.50;99.90;;;;;;7406715;19;19919;-88
2022/11/12 00:24:29;;;;;;;16.45;8.23;;;6.60;99.90;;;;;;7405176;19;19990;-87
2022/11/12 00:26:57;;;;;;;12.70;6.45;;;6.60;99.90;;;;;;7404521;19;19910;-88
2022/11/12 00:29:26;;;;;;;12.85;7.53;;;6.60;99.90;;;;;;7406385;19;19922;-89
2022/11/12 00:32:01;;;;;;;15.20;6.43;;;6.60;99.90;;;;;;7406581;19;19918;-88
2022/11/12 00:34:30;;;;;;;11.65;6.72;;;6.70;99.90;;;;;;7405112;19;19929;-89
2022/11/12 00:37:01;;;;;;;16.15;8.30;;;6.70;99.90;;;;;;7406823;19;19964;-88
2022/11/12 00:39:31;;;;;;;12.77;7.00;;;6.80;99.90;;;;;;7406513;19;19943;-88
2022/11/12 00:42:00;;;;;;;14.40;6.68;;;6.80;99.90;;;;;;7406193;19;20361;-88
2022/11/12 00:44:29;;;;;;;13.68;7.10;;;6.80;99.90;;;;;;7406092;19;19993;-88
2022/11/12 00:47:01;;;;;;;17.85;7.55;;;6.90;99.90;;;;;;7404274;19;20408;-88
2022/11/12 00:49:30;;;;;;;12.20;6.00;;;6.90;99.90;;;;;;7405630;19;19918;-89
2022/11/12 00:51:58;;;;;;;12.63;5.60;;;6.80;99.90;;;;;;7405907;19;19918;-88
2022/11/12 00:54:27;;;;;;;11.70;5.97;;;6.80;99.90;;;;;;7406135;19;19918;-88
2022/11/12 00:56:56;;;;;;;14.38;6.03;;;6.70;99.90;;;;;;7405872;19;20344;-88
2022/11/12 00:59:25;;;;;;;12.63;6.32;;;6.80;99.90;;;;;;7405928;19;19919;-88
2022/11/12 01:01:54;;;;;;;12.52;6.90;;;6.80;99.90;;;;;;7405432;19;19914;-88
2022/11/12 01:04:26;;;;;;;13.38;6.55;;;6.90;99.90;;;;;;7405521;19;20337;-88
2022/11/12 01:06:55;;;;;;;11.82;6.03;;;6.80;99.90;;;;;;7404014;19;19922;-88
2022/11/12 01:09:24;;;;;;;11.52;6.65;;;6.80;99.90;;;;;;7405894;19;19919;-89
2022/11/12 01:11:53;;;;;;;14.48;6.20;;;6.70;99.90;;;;;;7405483;19;19918;-88
2022/11/12 01:14:21;;;;;;;14.40;6.68;;;6.60;99.90;;;;;;7405163;19;20275;-88
2022/11/12 01:16:50;;;;;;;10.90;6.07;;;6.60;99.90;;;;;;7405230;19;19936;-88
2022/11/12 01:19:19;;;;;;;10.85;5.28;;;6.70;99.90;;;;;;7405040;19;19952;-88
2022/11/12 01:21:51;;;;;;;11.90;7.18;;;6.60;99.90;;;;;;7405324;19;19914;-88
2022/11/12 01:24:19;;;;;;;13.95;7.40;;;6.70;99.90;;;;;;7405259;19;20321;-88
2022/11/12 01:26:49;;;;;;;14.38;7.20;;;6.60;99.90;;;;;;7403264;19;19979;-88
2022/11/12 01:29:18;;;;;;;14.38;7.63;;;6.60;99.90;;;;;;7405150;19;19926;-87
2022/11/12 01:31:47;;;;;;;15.27;7.80;;;6.70;99.90;;;;;;7404775;19;19914;-88
2022/11/12 01:34:16;;;;;;;12.82;6.72;;;6.70;99.90;;;;;;7404485;19;19911;-88
2022/11/12 01:36:45;;;;;;;12.70;6.47;;;6.70;99.90;;;;;;7405006;19;19931;-87
2022/11/12 01:39:16;;;;;;;11.60;6.25;;;6.80;99.90;;;;;;7405146;19;19910;-88
2022/11/12 01:41:46;;;;;;;14.13;8.25;;;6.80;99.90;;;;;;7404491;19;19957;-88
2022/11/12 01:44:18;;;;;;;13.05;7.82;;;6.80;99.90;;;;;;7404555;19;19918;-86
2022/11/12 01:47:00;;;;;;;14.18;5.80;;;6.80;99.90;;;;;;7403531;19;19987;-88
2022/11/12 01:49:34;;;;;;;14.45;7.85;;;6.80;99.90;;;;;;7404548;19;19921;-88
2022/11/12 01:52:13;;;;;;;11.70;6.80;;;6.90;99.90;;;;;;7404222;19;20262;-88
2022/11/12 01:54:48;;;;;;;14.27;8.07;;;6.80;99.90;;;;;;7403719;19;19943;-87
2022/11/12 01:57:20;;;;;;;15.38;6.45;;;6.80;99.90;;;;;;7404172;19;19943;-88
2022/11/12 01:59:52;;;;;;;11.80;6.70;;;6.80;99.90;;;;;;7402352;19;19911;-88
2022/11/12 02:02:21;;;;;;;15.07;7.30;;;6.80;99.90;;;;;;7404072;19;19911;-87
2022/11/12 02:04:52;;;;;;;16.13;8.35;;;6.80;99.90;;;;;;7407611;19;19918;-88
2022/11/12 02:07:22;;;;;;;12.40;8.38;;;6.80;99.90;;;;;;7402429;19;19935;-88
2022/11/12 02:09:54;;;;;;;14.45;7.32;;;6.80;99.90;;;;;;7404387;19;19937;-87
2022/11/12 02:15:06;;;;;;;15.27;9.75;;;6.60;99.90;;;;;;7403663;19;19935;-88
2022/11/12 02:17:35;;;;;;;15.07;7.90;;;6.60;99.90;;;;;;7404186;19;20319;-89
2022/11/12 02:20:04;;;;;;;19.67;9.18;;;6.60;99.90;;;;;;7403432;19;20405;-88
2022/11/12 02:22:35;;;;;;;15.02;9.32;;;6.60;99.90;;;;;;7403999;19;19921;-88
2022/11/12 02:25:04;;;;;;;16.98;8.52;;;6.50;99.90;;;;;;7401765;19;19943;-88
2022/11/12 02:27:35;;;;;;;15.25;8.07;;;6.50;99.90;;;;;;7400418;19;20265;-88
2022/11/12 02:30:04;;;;;;;15.98;8.32;;;6.50;99.90;;;;;;7403584;19;20353;-88
2022/11/12 02:32:32;;;;;;;16.60;8.95;;;6.40;99.90;;;;;;7403507;19;19914;-89
2022/11/12 02:35:01;;;;;;;16.83;9.10;;;6.40;99.90;;;;;;7401946;19;19921;-88
2022/11/12 02:37:30;;;;;;;19.95;9.95;;;6.40;99.90;;;;;;7403021;19;19914;-88
2022/11/12 02:40:02;;;;;;;17.85;10.02;;;6.40;99.90;;;;;;7403006;19;20338;-88
2022/11/12 02:42:31;;;;;;;15.60;9.63;;;6.30;99.90;;;;;;7402659;19;19922;-89
2022/11/12 02:45:00;;;;;;;15.40;7.97;;;6.30;99.90;;;;;;7403125;19;19915;-88
2022/11/12 02:47:29;;;;;;;16.92;8.20;;;6.20;99.90;;;;;;7401631;19;19915;-89
2022/11/12 02:49:58;;;;;;;14.48;8.63;;;6.10;99.90;;;;;;7402471;19;19922;-88
2022/11/12 02:52:27;;;;;;;16.60;8.13;;;6.10;99.90;;;;;;7402563;19;20256;-88
2022/11/12 02:54:56;;;;;;;17.42;8.65;;;6.00;99.90;;;;;;7401925;19;19918;-88
2022/11/12 02:57:28;;;;;;;13.88;7.50;;;6.00;99.90;;;;;;7402317;19;19926;-88
2022/11/12 02:59:57;;;;;;;17.42;9.57;;;6.00;99.90;;;;;;7402467;19;19929;-88
2022/11/12 03:02:29;;;;;;;19.30;8.80;;;5.90;99.90;;;;;;7403744;19;20252;-89
2022/11/12 03:04:58;;;;;;;17.55;10.20;;;5.90;99.90;;;;;;7402021;19;19986;-88
2022/11/12 03:07:27;;;;;;;19.23;8.65;;;6.00;99.90;;;;;;7400644;19;20361;-89
2022/11/12 03:09:55;;;;;;;18.40;9.02;;;6.00;99.90;;;;;;7401874;19;19907;-88
2022/11/12 03:12:27;;;;;;;15.88;8.88;;;5.90;99.90;;;;;;7407988;19;19922;-88
2022/11/12 03:14:56;;;;;;;17.90;9.18;;;5.80;99.90;;;;;;7408468;19;19915;-87
2022/11/12 03:17:25;;;;;;;16.67;9.70;;;5.90;99.90;;;;;;7408556;19;19918;-88
2022/11/12 03:19:53;;;;;;;16.00;9.65;;;5.90;99.90;;;;;;7408974;19;19910;-88
2022/11/12 03:22:22;;;;;;;18.00;9.40;;;5.90;99.90;;;;;;7408576;19;20332;-88
2022/11/12 03:24:51;;;;;;;14.25;7.72;;;5.80;99.90;;;;;;7407990;19;20647;-89
2022/11/12 03:27:20;;;;;;;18.33;9.43;;;5.70;99.90;;;;;;7407079;19;19910;-89
2022/11/12 03:29:52;;;;;;;17.98;10.10;;;5.70;99.90;;;;;;7408135;19;19922;-89
2022/11/12 03:32:20;;;;;;;18.20;10.02;;;5.70;99.90;;;;;;7410375;19;19914;-87
2022/11/12 03:34:49;;;;;;;14.57;8.65;;;5.70;99.90;;;;;;7406681;19;20256;-87
2022/11/12 03:37:18;;;;;;;16.45;9.60;;;5.70;99.90;;;;;;7407950;19;19919;-88
2022/11/12 03:39:47;;;;;;;14.35;8.57;;;5.60;99.90;;;;;;7407794;19;19923;-88
2022/11/12 03:42:16;;;;;;;15.90;9.70;;;5.60;99.90;;;;;;7407983;19;19935;-88
2022/11/12 03:44:46;;;;;;;18.30;9.85;;;5.50;99.90;;;;;;7407597;19;20284;-88
2022/11/12 03:47:17;;;;;;;17.05;8.80;;;5.50;99.90;;;;;;7406505;19;20244;-87
2022/11/12 03:49:46;;;;;;;15.35;9.55;;;5.50;99.90;;;;;;7407858;19;19935;-88
2022/11/12 03:52:15;;;;;;;17.80;9.48;;;5.50;99.90;;;;;;7407745;19;19919;-88
2022/11/12 03:54:44;;;;;;;18.77;8.40;;;5.40;99.90;;;;;;7407019;19;19921;-87
2022/11/12 03:57:12;;;;;;;17.60;9.18;;;5.50;99.90;;;;;;7407461;19;20328;-88
2022/11/12 03:59:41;;;;;;;17.70;9.43;;;5.50;99.90;;;;;;7407342;19;19918;-86
2022/11/12 04:02:13;;;;;;;16.05;8.57;;;5.50;99.90;;;;;;7411370;19;19921;-88
2022/11/12 04:10:07;;;;;;;17.85;9.48;;;5.40;99.90;;;;;;7407058;19;19925;-88
2022/11/12 04:15:17;;;;;;;15.60;9.52;;;5.30;99.90;;;;;;7407404;19;19918;-87
2022/11/12 04:23:11;;;;;;;14.18;8.35;;;5.30;99.90;;;;;;7405152;19;19918;-88
2022/11/12 04:28:23;;;;;;;13.43;6.80;;;5.30;99.90;;;;;;7404259;19;19918;-87
2022/11/12 04:30:50;;;;;;;15.20;7.45;;;5.30;99.90;;;;;;7407130;19;19926;-88
2022/11/12 04:33:18;;;;;;;12.95;8.20;;;5.20;99.90;;;;;;7406514;19;19922;-88
2022/11/12 04:35:50;;;;;;;14.93;8.75;;;5.20;99.90;;;;;;7406606;19;19918;-88
2022/11/12 04:38:19;;;;;;;13.18;7.47;;;5.20;99.90;;;;;;7406487;19;19911;-88
2022/11/12 04:46:13;;;;;;;12.80;6.30;;;5.10;99.90;;;;;;7404060;19;19918;-88
2022/11/12 04:48:42;;;;;;;12.52;7.32;;;5.10;99.90;;;;;;7406375;19;19918;-88
2022/11/12 04:53:55;;;;;;;14.15;7.65;;;5.10;99.90;;;;;;7405894;19;19914;-88
2022/11/12 04:56:24;;;;;;;17.75;6.75;;;5.10;99.90;;;;;;7406180;19;19915;-88
2022/11/12 04:58:52;;;;;;;10.77;6.20;;;5.10;99.90;;;;;;7405662;19;20253;-88
2022/11/12 05:01:22;;;;;;;15.88;5.97;;;5.10;99.90;;;;;;7406300;19;19925;-88
2022/11/12 05:03:50;;;;;;;10.55;4.55;;;5.10;99.90;;;;;;7405416;19;20253;-88
2022/11/12 05:09:18;;;;;;;11.57;5.40;;;5.10;99.90;;;;;;7401882;19;19911;-87
2022/11/12 05:11:47;;;;;;;17.67;5.68;;;5.20;99.90;;;;;;7404554;19;19915;-88
2022/11/12 05:14:16;;;;;;;11.70;6.07;;;5.20;99.90;;;;;;7406031;19;20385;-88
2022/11/12 05:16:46;;;;;;;12.32;5.43;;;5.10;99.90;;;;;;7406131;19;19922;-88
2022/11/12 05:19:14;;;;;;;8.23;5.28;;;5.10;99.90;;;;;;7405401;19;19932;-88
2022/11/12 05:24:27;;;;;;;8.98;4.22;;;5.00;99.90;;;;;;7404624;19;19995;-87
2022/11/12 05:26:56;;;;;;;11.02;5.75;;;5.00;99.90;;;;;;7404893;19;19918;-87
2022/11/12 05:29:25;;;;;;;9.65;4.60;;;5.10;99.90;;;;;;7405158;19;19914;-87
2022/11/12 05:31:54;;;;;;;9.27;4.63;;;5.10;99.90;;;;;;7405305;19;19935;-88
2022/11/12 05:34:23;;;;;;;8.88;4.85;;;5.10;99.90;;;;;;7400738;19;19918;-88
2022/11/12 05:36:55;;;;;;;9.23;4.07;;;5.10;99.90;;;;;;7405013;19;20268;-87
2022/11/12 05:39:24;;;;;;;9.93;4.65;;;5.10;99.90;;;;;;7404660;19;20311;-88
2022/11/12 05:41:53;;;;;;;10.38;5.00;;;5.20;99.90;;;;;;7404863;19;19910;-87
2022/11/12 05:44:22;;;;;;;9.07;4.50;;;5.20;99.90;;;;;;7404741;19;19911;-88
2022/11/12 05:46:52;;;;;;;9.77;4.45;;;5.10;99.90;;;;;;7404258;19;19978;-88
2022/11/12 05:49:21;;;;;;;7.53;4.32;;;5.10;99.90;;;;;;7404308;19;19910;-87
2022/11/12 05:51:50;;;;;;;10.57;4.97;;;5.00;99.90;;;;;;7404352;19;19914;-88
2022/11/12 05:54:23;;;;;;;10.82;4.68;;;5.00;99.90;;;;;;7404371;19;20329;-88
2022/11/12 05:56:54;;;;;;;11.68;6.25;;;5.10;99.90;;;;;;7403801;19;19938;-88
2022/11/12 05:59:23;;;;;;;10.25;4.65;;;5.10;99.90;;;;;;7408036;19;19939;-88
2022/11/12 06:01:52;;;;;;;10.80;4.20;;;5.10;99.90;;;;;;7404173;19;19914;-88
2022/11/12 06:04:22;;;;;;;12.48;4.80;;;5.10;99.90;;;;;;7404535;19;19914;-88
2022/11/12 06:06:50;;;;;;;9.90;4.07;;;5.10;99.90;;;;;;7404164;19;19919;-88
2022/11/12 06:09:22;;;;;;;7.10;4.43;;;5.00;99.90;;;;;;7404455;19;19922;-87
2022/11/12 06:11:51;;;;;;;9.52;4.43;;;5.10;99.90;;;;;;7403973;19;19919;-88
2022/11/12 06:14:20;;;;;;;7.72;4.10;;;4.90;99.90;;;;;;7403865;19;19918;-87
2022/11/12 06:16:49;;;;;;;11.27;4.60;;;4.80;99.90;;;;;;7404288;19;19919;-88
2022/11/12 06:19:18;;;;;;;8.30;4.38;;;4.80;99.90;;;;;;7404049;19;19918;-88
2022/11/12 06:21:47;;;;;;;8.60;4.40;;;4.80;99.90;;;;;;7403870;19;19935;-87
2022/11/12 06:24:16;;;;;;;13.20;5.30;;;4.70;99.90;;;;;;7403522;19;20347;-87
2022/11/12 06:26:47;;;;;;;11.98;5.05;;;4.70;99.90;;;;;;7401260;19;19919;-88
2022/11/12 06:29:16;;;;;;;14.13;5.43;;;4.60;99.90;;;;;;7403743;19;20014;-86
2022/11/12 06:31:45;;;;;;;10.93;5.22;;;4.60;99.90;;;;;;7403425;19;19921;-88
2022/11/12 06:34:13;;;;;;;10.68;5.78;;;4.60;99.90;;;;;;7402520;19;19914;-88
2022/11/12 06:36:42;;;;;;;9.50;4.60;;;4.60;99.90;;;;;;7403428;19;19923;-88
2022/11/12 06:39:13;;;;;;;13.27;5.63;;;4.60;99.90;;;;;;7402977;19;19922;-88
2022/11/12 06:41:41;;;;;;;;;;;4.50;99.90;;;;;;7405380;19;20260;-88
2022/11/12 06:44:13;;;;;;;11.20;5.15;;;4.50;99.90;;;;;;7402860;19;19917;-88
2022/11/12 06:46:42;;;;;;;8.35;4.32;;;4.50;99.90;;;;;;7407319;19;20567;-89
2022/11/12 06:49:12;;;;;;;11.93;4.38;;;4.50;99.90;;;;;;7406653;19;19928;-88
2022/11/12 06:51:41;;;;;;;8.32;4.03;;;4.40;99.90;;;;;;7409991;19;19918;-87
2022/11/12 06:54:10;;;;;;;9.63;4.65;;;4.40;99.90;;;;;;7409766;19;19922;-87
2022/11/12 06:56:39;;;;;;;13.63;4.95;;;4.40;99.90;;;;;;7409802;19;20005;-87
2022/11/12 06:59:07;;;;;;;8.75;5.60;;;4.40;99.90;;;;;;7409038;19;19990;-88
2022/11/12 07:01:42;;;;;;;12.75;5.63;;;4.40;99.90;;;;;;7409144;19;19919;-88
2022/11/12 07:04:12;;;;;;;7.72;3.95;;;4.40;99.90;;;;;;7409817;19;19985;-88
2022/11/12 07:06:40;;;;;;;11.23;4.68;;;4.40;99.90;;;;;;7409484;19;19921;-87
2022/11/12 07:09:10;;;;;;;8.93;5.05;;;4.30;99.90;;;;;;7406744;19;20559;-87
2022/11/12 07:11:39;;;;;;;8.85;4.25;;;4.40;99.90;;;;;;7408954;19;19921;-87
2022/11/12 07:14:09;;;;;;;14.88;6.18;;;4.40;99.90;;;;;;7409446;19;19924;-87
2022/11/12 07:16:38;;;;;;;10.73;5.25;;;4.40;99.90;;;;;;7409472;19;20341;-86
2022/11/12 07:19:09;;;;;;;9.13;5.07;;;4.50;99.90;;;;;;7408541;19;19919;-87
2022/11/12 07:21:38;;;;;;;8.50;4.13;;;4.50;99.90;;;;;;7408774;19;19919;-88
2022/11/12 07:24:08;;;;;;;10.43;5.18;;;4.50;99.90;;;;;;7408698;19;19919;-87
2022/11/12 07:26:37;;;;;;;7.60;5.13;;;4.50;99.90;;;;;;7406365;19;19925;-88
2022/11/12 07:29:06;;;;;;;10.18;5.65;;;4.50;99.90;;;;;;7405977;19;19928;-87
2022/11/12 07:31:35;;;;;;;8.90;4.00;;;4.50;99.90;;;;;;7408400;19;19915;-87
2022/11/12 07:34:04;;;;;;;9.68;5.28;;;4.50;99.90;;;;;;7407259;19;20572;-88
2022/11/12 07:36:35;;;;;;;10.40;5.72;;;4.60;99.90;;;;;;7408797;19;19923;-88
2022/11/12 07:39:04;;;;;;;11.55;5.82;;;4.60;99.90;;;;;;7408053;19;19921;-88
2022/11/12 07:41:33;;;;;;;11.85;6.07;;;4.70;99.90;;;;;;7407989;19;20014;-87
2022/11/12 07:44:02;;;;;;;10.48;5.20;;;4.80;99.90;;;;;;7407983;19;19919;-87
2022/11/12 07:46:30;;;;;;;10.07;4.93;;;4.80;99.90;;;;;;7407983;19;19923;-88
2022/11/12 07:48:59;;;;;;;9.95;5.68;;;4.80;99.90;;;;;;7405974;19;19913;-88
2022/11/12 07:51:30;;;;;;;;;;;4.80;99.90;;;;;;7410115;19;20416;-87
2022/11/12 07:54:03;;;;;;;9.32;5.45;;;4.90;99.90;;;;;;7408135;19;19918;-87
2022/11/12 07:56:32;;;;;;;10.45;5.45;;;5.00;99.90;;;;;;7410919;19;19915;-88
2022/11/12 07:59:01;;;;;;;11.93;5.53;;;5.00;99.90;;;;;;7405768;19;19929;-88
2022/11/12 08:01:32;;;;;;;11.27;5.20;;;5.10;99.90;;;;;;7406328;19;19929;-87
2022/11/12 08:04:02;;;;;;;13.15;5.65;;;5.20;99.90;;;;;;7407492;19;19918;-89
2022/11/12 08:06:32;;;;;;;12.93;6.20;;;5.30;99.90;;;;;;7412079;19;19923;-88
2022/11/12 08:09:05;;;;;;;11.02;6.82;;;5.40;99.90;;;;;;7405619;19;19918;-88
2022/11/12 08:11:35;;;;;;;12.70;6.95;;;5.40;99.90;;;;;;7407388;19;20379;-88
2022/11/12 08:14:04;;;;;;;9.35;4.57;;;5.50;99.90;;;;;;7407516;19;19918;-88
2022/11/12 08:16:33;;;;;;;12.02;5.80;;;5.60;99.90;;;;;;7405360;19;20241;-87
2022/11/12 08:19:02;;;;;;;10.93;5.00;;;5.60;99.90;;;;;;7406607;19;20236;-88
2022/11/12 08:21:31;;;;;;;10.48;4.63;;;5.60;99.90;;;;;;7406984;19;19915;-87
2022/11/12 08:24:03;;;;;;;10.13;6.18;;;5.70;99.90;;;;;;7406952;19;19929;-88
2022/11/12 08:26:32;;;;;;;9.23;4.88;;;5.80;99.90;;;;;;7405060;19;19921;-87
2022/11/12 08:29:01;;;;;;;11.85;5.03;;;5.80;99.90;;;;;;7405584;19;19910;-88
2022/11/12 08:31:29;;;;;;;11.70;6.65;;;5.90;99.90;;;;;;7407259;19;19912;-89
2022/11/12 08:33:58;;;;;;;9.68;6.40;;;5.90;99.90;;;;;;7406314;19;19925;-88
2022/11/12 08:36:27;;;;;;;11.23;5.57;;;5.90;99.90;;;;;;7406392;19;19910;-89
2022/11/12 08:38:56;;;;;;;13.38;6.65;;;6.00;99.90;;;;;;7406606;19;20328;-87
2022/11/12 08:41:27;;;;;;;11.48;5.25;;;6.10;99.90;;;;;;7406567;19;19918;-89
2022/11/12 08:43:56;;;;;;;11.25;6.45;;;6.10;99.90;;;;;;7406507;19;19911;-88
2022/11/12 08:46:25;;;;;;;10.70;6.07;;;6.20;99.90;;;;;;7406179;19;19914;-89
2022/11/12 08:48:54;;;;;;;12.65;5.97;;;6.30;99.90;;;;;;7404847;19;19918;-88
2022/11/12 08:51:23;;;;;;;14.68;7.82;;;6.40;99.90;;;;;;7406360;19;19919;-88
2022/11/12 08:53:53;;;;;;;14.25;6.55;;;6.60;99.90;;;;;;7407199;19;19919;-88
2022/11/12 08:56:21;;;;;;;12.73;7.20;;;6.70;99.90;;;;;;7405872;19;20352;-88
2022/11/12 08:58:53;;;;;;;12.70;6.63;;;6.70;99.90;;;;;;7405948;19;20303;-88
2022/11/12 09:01:22;;;;;;;13.57;6.88;;;6.80;99.90;;;;;;7405970;19;19911;-88
2022/11/12 09:03:51;;;;;;;13.65;6.97;;;6.80;99.90;;;;;;7406350;19;19939;-88
2022/11/12 09:06:20;;;;;;;16.25;8.77;;;6.90;99.90;;;;;;7405766;19;19921;-88
2022/11/12 09:08:49;;;;;;;22.55;8.73;;;6.90;99.90;;;;;;7404163;19;20483;-88
2022/11/12 09:11:18;;;;;;;21.30;9.13;;;7.00;99.90;;;;;;7405523;19;20400;-88
2022/11/12 09:13:47;;;;;;;19.67;7.65;;;7.10;99.90;;;;;;7406105;19;19911;-89
2022/11/12 09:16:23;;;;;;;27.40;10.05;;;7.20;99.90;;;;;;7403784;19;19919;-88
2022/11/12 09:18:52;;;;;;;37.40;11.88;;;7.30;99.90;;;;;;7405465;19;19950;-88
2022/11/12 09:21:23;;;;;;;42.53;10.90;;;7.30;99.90;;;;;;7405771;19;19923;-88
2022/11/12 09:23:52;;;;;;;40.05;13.00;;;7.30;99.90;;;;;;7405425;19;19922;-87
2022/11/12 09:26:21;;;;;;;54.20;13.65;;;7.30;99.90;;;;;;7403300;19;20010;-88
2022/11/12 09:28:51;;;;;;;62.85;13.98;;;7.40;99.90;;;;;;7404748;19;19942;-88
2022/11/12 09:31:24;;;;;;;74.68;15.57;;;7.40;99.90;;;;;;7405160;19;19932;-88
2022/11/12 09:33:53;;;;;;;57.03;14.95;;;7.40;99.90;;;;;;7404623;19;19914;-88
2022/11/12 09:36:22;;;;;;;54.72;17.23;;;7.50;99.90;;;;;;7404847;19;20347;-88
2022/11/12 09:38:51;;;;;;;46.45;14.13;;;7.50;99.90;;;;;;7404909;19;19915;-87
2022/11/12 09:41:25;;;;;;;56.20;15.15;;;7.50;99.90;;;;;;7404855;19;20256;-87
2022/11/12 09:43:57;;;;;;;47.28;15.63;;;7.60;99.90;;;;;;7405035;19;20336;-87
2022/11/12 09:46:35;;;;;;;65.38;15.77;;;7.60;99.90;;;;;;7405017;19;19930;-88
2022/11/12 09:49:09;;;;;;;52.33;13.50;;;7.60;99.90;;;;;;7403825;19;19926;-88
2022/11/12 09:51:41;;;;;;;63.85;15.80;;;7.60;99.90;;;;;;7404735;19;20324;-87
2022/11/12 09:54:21;;;;;;;56.13;15.07;;;7.70;99.90;;;;;;7409142;19;19953;-89
2022/11/12 09:56:50;;;;;;;114.05;20.90;;;7.70;99.90;;;;;;7404069;19;19934;-88
2022/11/12 09:59:20;;;;;;;95.03;15.82;;;7.80;99.90;;;;;;7404266;19;19918;-88
2022/11/12 10:01:59;;;;;;;98.35;16.92;;;7.90;99.90;;;;;;7404830;19;19915;-88
2022/11/12 10:04:49;;;;;;;104.43;18.63;;;7.90;99.90;;;;;;7404240;19;19915;-89
2022/11/12 10:07:29;;;;;;;133.93;24.65;;;7.90;99.90;;;;;;7404192;19;19919;-88
2022/11/12 10:10:06;;;;;;;96.75;17.58;;;8.00;99.90;;;;;;7402887;19;19918;-89
2022/11/12 10:12:45;;;;;;;87.72;17.95;;;8.00;99.90;;;;;;7403668;19;19919;-87
2022/11/12 10:18:50;;;;;;;101.07;16.92;;;8.10;99.90;;;;;;7404396;19;19950;-87
2022/11/12 10:21:28;;;;;;;132.15;20.73;;;8.10;99.90;;;;;;7402125;19;19934;-88
2022/11/12 10:23:59;;;;;;;95.15;16.95;;;8.10;99.90;;;;;;7403873;19;19918;-87
2022/11/12 10:26:29;;;;;;;132.10;22.45;;;8.10;99.90;;;;;;7401482;19;19974;-87
2022/11/12 10:29:04;;;;;;;83.60;20.15;;;8.10;99.90;;;;;;7403178;19;19926;-88
2022/11/12 10:31:33;;;;;;;73.45;19.05;;;8.10;99.90;;;;;;7403175;19;20405;-88
2022/11/12 10:34:17;;;;;;;34.35;14.48;;;8.20;99.90;;;;;;7403146;19;19921;-89
2022/11/12 10:36:50;;;;;;;73.25;18.73;;;8.20;99.90;;;;;;7403763;19;19922;-88
2022/11/12 10:39:37;;;;;;;61.85;17.50;;;8.30;99.90;;;;;;7402988;19;19966;-88
2022/11/12 10:42:08;;;;;;;42.85;16.10;;;8.40;99.90;;;;;;7403080;19;19925;-88
2022/11/12 10:44:38;;;;;;;33.55;17.33;;;8.40;99.90;;;;;;7402733;19;19918;-88
2022/11/12 10:47:25;;;;;;;30.48;16.20;;;8.40;99.90;;;;;;7403348;19;19914;-87
2022/11/12 10:50:26;;;;;;;27.27;14.48;;;8.40;99.90;;;;;;7401435;19;19922;-88
2022/11/12 10:52:58;;;;;;;29.60;16.65;;;8.40;99.90;;;;;;7400242;19;20337;-88
2022/11/12 10:55:30;;;;;;;27.92;15.38;;;8.40;99.90;;;;;;7402258;19;19910;-88
2022/11/12 10:58:24;;;;;;;29.75;14.32;;;8.40;99.90;;;;;;7402722;19;19914;-88
2022/11/12 11:01:01;;;;;;;29.27;14.73;;;8.40;99.90;;;;;;7402335;19;19914;-88
2022/11/12 11:03:34;;;;;;;27.45;16.83;;;8.40;99.90;;;;;;7402301;19;19915;-88
2022/11/12 11:06:07;;;;;;;28.45;16.13;;;8.40;99.90;;;;;;7402485;19;19919;-88
2022/11/12 11:08:41;;;;;;;24.45;14.98;;;8.50;99.90;;;;;;7402071;19;19931;-87
2022/11/12 11:11:23;;;;;;;27.15;13.18;;;8.50;99.90;;;;;;7402115;19;20242;-87
2022/11/12 11:13:53;;;;;;;23.85;13.70;;;8.60;99.90;;;;;;7402035;19;19990;-87
2022/11/12 11:16:24;;;;;;;23.05;14.98;;;8.60;99.90;;;;;;7401765;19;19922;-87
2022/11/12 11:18:55;;;;;;;23.45;13.70;;;8.70;99.90;;;;;;7402168;19;19918;-88
2022/11/12 11:21:59;;;;;;;22.83;12.55;;;8.80;99.90;;;;;;7401875;19;19924;-87
2022/11/12 11:24:41;;;;;;;18.23;11.57;;;8.90;99.90;;;;;;7401649;19;20363;-88
2022/11/12 11:27:14;;;;;;;;;;;8.90;99.90;;;;;;7402120;19;20329;-88
2022/11/12 11:30:04;;;;;;;17.45;11.15;;;9.00;99.90;;;;;;7400338;19;19926;-88
2022/11/12 11:32:52;;;;;;;16.50;10.88;;;9.00;99.90;;;;;;7405201;19;19918;-88
2022/11/12 11:35:28;;;;;;;19.10;12.00;;;9.20;99.90;;;;;;7405952;19;19915;-87
2022/11/12 11:38:15;;;;;;;19.38;11.65;;;9.20;99.90;;;;;;7408241;19;19919;-87
2022/11/12 11:40:53;;;;;;;20.05;12.93;;;9.30;99.90;;;;;;7408582;19;19915;-88
2022/11/12 11:43:36;;;;;;;19.58;12.25;;;9.40;99.90;;;;;;7408248;19;19911;-88
2022/11/12 11:46:16;;;;;;;15.95;9.35;;;9.50;99.90;;;;;;7408454;19;19922;-88
2022/11/12 11:49:08;;;;;;;15.60;11.52;;;9.50;99.90;;;;;;7407947;19;19914;-87
2022/11/12 11:51:45;;;;;;;15.60;10.25;;;9.60;99.90;;;;;;7407918;19;20328;-88
2022/11/12 11:54:43;;;;;;;15.45;9.40;;;9.70;99.90;;;;;;7407799;19;19915;-88
2022/11/12 11:57:16;;;;;;;14.70;10.23;;;9.70;99.90;;;;;;7408276;19;19910;-88
2022/11/12 12:00:03;;;;;;;14.90;9.35;;;9.80;99.90;;;;;;7407458;19;19942;-88
2022/11/12 12:02:55;;;;;;;18.92;10.65;;;9.80;99.90;;;;;;7407851;19;19986;-88
2022/11/12 12:05:33;;;;;;;13.30;8.40;;;9.80;99.90;;;;;;7408404;19;19918;-88
2022/11/12 12:08:05;;;;;;;13.50;10.63;;;9.90;99.90;;;;;;7407236;19;19925;-88
2022/11/12 12:10:50;;;;;;;19.10;10.23;;;10.10;99.90;;;;;;7405370;19;19915;-88
2022/11/12 12:13:29;;;;;;;17.67;10.43;;;10.10;99.90;;;;;;7407571;19;20330;-88
2022/11/12 12:16:29;;;;;;;14.68;8.98;;;10.10;99.90;;;;;;7407421;19;19935;-88
2022/11/12 12:19:09;;;;;;;13.95;8.63;;;10.20;99.90;;;;;;7406904;19;20336;-87
2022/11/12 12:21:41;;;;;;;15.63;9.43;;;10.20;99.90;;;;;;7407448;19;19946;-87
2022/11/12 12:24:19;;;;;;;17.73;10.68;;;10.40;99.90;;;;;;7407214;19;19926;-89
2022/11/12 12:26:54;;;;;;;13.35;9.95;;;10.60;99.90;;;;;;7404652;19;19923;-88
2022/11/12 12:29:30;;;;;;;15.75;8.73;;;10.70;99.90;;;;;;7406012;19;20280;-87
2022/11/12 12:32:06;;;;;;;14.45;9.88;;;10.70;99.90;;;;;;7406453;19;19926;-87
2022/11/12 12:34:38;;;;;;;;;;;10.80;99.90;;;;;;7407479;19;20296;-86
2022/11/12 12:37:16;;;;;;;15.43;9.27;;;10.90;99.90;;;;;;7406677;19;19914;-87
2022/11/12 12:39:53;;;;;;;14.73;8.50;;;11.00;99.90;;;;;;7406427;19;20209;-87
2022/11/12 12:42:31;;;;;;;12.77;9.55;;;11.10;99.90;;;;;;7406130;19;19921;-87
2022/11/12 12:45:11;;;;;;;14.23;9.65;;;11.10;99.90;;;;;;7404905;19;19922;-88
2022/11/12 12:47:44;;;;;;;13.88;9.50;;;11.10;99.90;;;;;;7406063;19;19974;-88
2022/11/12 12:50:17;;;;;;;14.55;8.40;;;11.20;99.90;;;;;;7404893;19;20020;-88
2022/11/12 12:53:04;;;;;;;16.60;11.10;;;11.30;99.90;;;;;;7406043;19;19911;-88
2022/11/12 12:55:40;;;;;;;15.90;10.00;;;11.30;99.90;;;;;;7405819;19;19914;-88
2022/11/12 12:58:29;;;;;;;11.25;8.30;;;11.20;99.90;;;;;;7406749;19;19935;-87
2022/11/12 13:01:03;;;;;;;16.35;9.77;;;11.30;99.90;;;;;;7405724;19;19930;-88
2022/11/12 13:03:54;;;;;;;13.63;8.25;;;11.40;99.90;;;;;;7405771;19;19910;-87
2022/11/12 13:06:32;;;;;;;14.82;10.00;;;11.40;99.90;;;;;;7405257;19;19918;-89
2022/11/12 13:09:06;;;;;;;17.27;9.98;;;11.40;99.90;;;;;;7405554;19;19914;-88
2022/11/12 13:15:10;;;;;;;13.75;6.70;;;11.50;99.90;;;;;;7405870;19;19915;-87
2022/11/12 13:17:51;;;;;;;12.73;7.60;;;11.50;99.90;;;;;;7405567;19;19915;-88
2022/11/12 13:20:39;;;;;;;14.55;8.77;;;11.60;99.90;;;;;;7405452;19;19918;-87
2022/11/12 13:23:30;;;;;;;13.27;8.73;;;11.60;99.90;;;;;;7405147;19;19914;-88
2022/11/12 13:26:29;;;;;;;10.73;6.95;;;11.60;99.90;;;;;;7404001;19;20348;-87
2022/11/12 13:29:33;;;;;;;12.65;7.07;;;11.70;99.90;;;;;;7405210;19;19915;-88
2022/11/12 13:32:47;;;;;;;11.75;7.30;;;11.80;99.90;;;;;;7404442;19;19919;-88
2022/11/12 13:35:29;;;;;;;10.52;6.10;;;11.80;99.90;;;;;;7401368;19;20502;-88
2022/11/12 13:38:04;;;;;;;11.15;7.30;;;11.80;99.90;;;;;;7404896;19;20336;-88
2022/11/12 13:40:46;;;;;;;10.07;6.13;;;11.90;99.90;;;;;;7404784;19;19914;-87
2022/11/12 13:43:32;;;;;;;13.38;7.50;;;11.90;99.90;;;;;;7404882;19;20404;-88
2022/11/12 13:46:31;;;;;;;13.27;7.47;;;11.90;99.90;;;;;;7404999;19;19919;-88
2022/11/12 13:49:05;;;;;;;14.13;6.20;;;11.90;99.90;;;;;;7402425;19;20407;-88
2022/11/12 13:51:44;;;;;;;14.43;9.02;;;11.90;99.90;;;;;;7402947;19;19914;-88
2022/11/12 13:54:29;;;;;;;13.32;8.18;;;11.90;99.90;;;;;;7402534;19;19925;-88